createdAt,value
2022-09-30T00:01:39.997Z,15.77
2022-09-30T00:05:43.279Z,15.97
2022-09-30T00:09:48.203Z,17.73
2022-09-30T00:13:53.162Z,16.50
2022-09-30T00:17:59.674Z,15.80
2022-09-30T00:22:02.880Z,16.70
2022-09-30T00:26:09.683Z,14.87
2022-09-30T00:30:13.212Z,15.00
2022-09-30T00:34:19.640Z,15.90
2022-09-30T00:38:23.003Z,15.07
2022-09-30T00:42:30.113Z,15.80
2022-09-30T00:46:44.416Z,14.07
2022-09-30T00:50:56.674Z,16.33
2022-09-30T00:55:01.869Z,14.90
2022-09-30T00:59:09.273Z,16.77
2022-09-30T01:03:12.590Z,16.03
2022-09-30T01:07:17.362Z,14.70
2022-09-30T01:11:21.239Z,13.33
2022-09-30T01:15:33.619Z,14.30
2022-09-30T01:20:14.386Z,15.03
2022-09-30T01:24:57.591Z,13.83
2022-09-30T01:29:30.067Z,13.17
2022-09-30T01:33:43.432Z,13.10
2022-09-30T01:37:56.953Z,12.23
2022-09-30T01:42:10.982Z,14.13
2022-09-30T01:46:21.121Z,12.30
2022-09-30T01:50:31.224Z,13.00
2022-09-30T01:54:41.811Z,11.80
2022-09-30T01:58:53.617Z,13.37
2022-09-30T02:03:00.785Z,11.57
2022-09-30T02:07:09.607Z,11.67
2022-09-30T02:11:17.645Z,12.50
2022-09-30T02:15:26.287Z,12.93
2022-09-30T02:19:34.973Z,11.43
2022-09-30T02:23:43.723Z,12.07
2022-09-30T02:27:53.489Z,11.03
2022-09-30T02:32:02.227Z,10.17
2022-09-30T02:36:09.791Z,10.13
2022-09-30T02:40:19.758Z,9.77
2022-09-30T02:44:23.141Z,9.37
2022-09-30T02:48:32.671Z,10.23
2022-09-30T02:52:47.442Z,10.40
2022-09-30T02:56:56.411Z,9.20
2022-09-30T03:00:59.792Z,10.20
2022-09-30T03:05:04.352Z,9.70
2022-09-30T03:09:09.142Z,11.87
2022-09-30T03:13:30.761Z,14.83
2022-09-30T03:18:13.404Z,10.13
2022-09-30T03:22:38.124Z,12.63
2022-09-30T03:26:52.674Z,11.13
2022-09-30T03:31:09.676Z,9.73
2022-09-30T03:35:20.551Z,10.87
2022-09-30T03:39:27.924Z,9.13
2022-09-30T03:43:34.484Z,10.23
2022-09-30T03:47:45.234Z,11.60
2022-09-30T03:51:50.950Z,13.80
2022-09-30T03:55:54.541Z,11.43
2022-09-30T03:59:57.826Z,11.70
2022-09-30T04:04:03.806Z,11.47
2022-09-30T04:08:07.029Z,12.00
2022-09-30T04:12:11.542Z,12.50
2022-09-30T04:16:14.884Z,11.77
2022-09-30T04:20:19.699Z,11.70
2022-09-30T04:24:23.728Z,13.10
2022-09-30T04:28:27.594Z,11.47
2022-09-30T04:32:30.844Z,11.67
2022-09-30T04:36:39.831Z,13.00
2022-09-30T04:40:43.043Z,10.50
2022-09-30T04:44:46.461Z,11.47
2022-09-30T04:48:50.487Z,12.60
2022-09-30T04:52:56.281Z,11.73
2022-09-30T04:56:59.656Z,11.70
2022-09-30T05:01:04.089Z,10.77
2022-09-30T05:05:08.698Z,12.00
2022-09-30T05:09:13.474Z,10.63
2022-09-30T05:13:16.886Z,10.50
2022-09-30T05:17:20.080Z,11.10
2022-09-30T05:21:23.412Z,11.87
2022-09-30T05:25:28.353Z,11.27
2022-09-30T05:29:32.072Z,11.23
2022-09-30T05:33:36.270Z,11.70
2022-09-30T05:37:39.607Z,11.20
2022-09-30T05:41:44.300Z,13.17
2022-09-30T05:45:54.140Z,13.30
2022-09-30T05:49:57.545Z,15.90
2022-09-30T05:54:00.862Z,17.30
2022-09-30T05:58:05.576Z,12.30
2022-09-30T06:02:10.473Z,12.37
2022-09-30T06:06:14.090Z,14.17
2022-09-30T06:10:17.686Z,10.63
2022-09-30T06:14:22.956Z,10.50
2022-09-30T06:18:27.738Z,7.90
2022-09-30T06:22:30.944Z,9.67
2022-09-30T06:26:34.349Z,7.83
2022-09-30T06:30:39.052Z,7.67
2022-09-30T06:34:42.488Z,7.50
2022-09-30T06:38:45.714Z,8.63
2022-09-30T06:42:49.374Z,7.97
2022-09-30T06:46:54.937Z,10.37
2022-09-30T06:51:02.198Z,11.70
2022-09-30T06:55:06.419Z,8.20
2022-09-30T06:59:09.979Z,8.53
2022-09-30T07:03:29.509Z,9.03
2022-09-30T07:07:35.988Z,20.07
2022-09-30T07:11:40.089Z,9.60
2022-09-30T07:15:43.609Z,16.10
2022-09-30T07:19:52.170Z,13.90
2022-09-30T07:23:56.828Z,13.70
2022-09-30T07:28:01.385Z,8.53
2022-09-30T07:32:05.087Z,8.80
2022-09-30T07:36:10.809Z,8.77
2022-09-30T07:40:16.375Z,9.50
2022-09-30T07:44:20.176Z,7.67
2022-09-30T07:48:46.857Z,8.37
2022-09-30T07:52:51.716Z,7.10
2022-09-30T07:57:09.716Z,6.70
2022-09-30T08:01:14.211Z,8.50
2022-09-30T08:05:17.883Z,6.90
2022-09-30T08:09:25.355Z,8.20
2022-09-30T08:13:28.736Z,14.40
2022-09-30T08:17:32.139Z,9.00
2022-09-30T08:21:36.397Z,7.00
2022-09-30T08:25:41.559Z,4.30
2022-09-30T08:30:08.575Z,3.70
2022-09-30T08:34:08.772Z,4.10
2022-09-30T08:38:12.000Z,4.70
2022-09-30T08:42:50.580Z,5.47
2022-09-30T08:47:01.620Z,5.40
2022-09-30T08:51:16.785Z,5.90
2022-09-30T08:55:24.686Z,6.27
2022-09-30T08:59:36.252Z,6.60
2022-09-30T09:03:40.688Z,7.00
2022-09-30T09:07:53.372Z,6.60
2022-09-30T09:12:12.094Z,4.80
2022-09-30T09:16:26.508Z,3.70
2022-09-30T09:20:34.810Z,4.13
2022-09-30T09:24:43.392Z,3.93
2022-09-30T09:28:58.845Z,3.83
2022-09-30T09:33:21.435Z,5.27
2022-09-30T09:37:44.721Z,6.10
2022-09-30T09:42:00.564Z,4.00
2022-09-30T09:46:14.657Z,2.90
2022-09-30T09:50:22.939Z,3.90
2022-09-30T09:54:31.269Z,11.97
2022-09-30T09:58:34.870Z,3.23
2022-09-30T10:02:39.969Z,6.00
2022-09-30T10:06:52.998Z,2.03
2022-09-30T10:10:59.154Z,4.53
2022-09-30T10:15:23.862Z,6.30
2022-09-30T10:19:29.730Z,2.53
2022-09-30T10:23:37.792Z,1.77
2022-09-30T10:27:54.991Z,3.80
2022-09-30T10:32:00.018Z,1.80
2022-09-30T10:36:12.896Z,1.70
2022-09-30T10:40:22.706Z,2.67
2022-09-30T10:44:26.152Z,2.20
2022-09-30T10:48:32.754Z,6.30
2022-09-30T10:52:40.128Z,2.30
2022-09-30T10:56:47.049Z,2.60
2022-09-30T11:00:55.193Z,2.37
2022-09-30T11:05:05.014Z,1.60
2022-09-30T11:09:14.181Z,2.00
2022-09-30T11:13:25.082Z,1.57
2022-09-30T11:17:35.124Z,2.53
2022-09-30T11:21:43.653Z,1.60
2022-09-30T11:25:54.714Z,1.80
2022-09-30T11:30:10.378Z,1.70
2022-09-30T11:34:32.754Z,1.90
2022-09-30T11:38:49.051Z,1.40
2022-09-30T11:43:06.278Z,1.77
2022-09-30T11:47:46.754Z,1.20
2022-09-30T11:51:59.373Z,1.60
2022-09-30T11:56:14.084Z,1.90
2022-09-30T12:00:18.727Z,1.73
2022-09-30T12:04:31.728Z,1.70
2022-09-30T12:08:38.851Z,1.97
2022-09-30T12:12:43.014Z,1.80
2022-09-30T12:16:49.134Z,1.70
2022-09-30T12:20:57.837Z,2.20
2022-09-30T12:25:03.143Z,1.80
2022-09-30T12:29:33.321Z,1.80
2022-09-30T12:33:56.908Z,3.00
2022-09-30T12:38:26.027Z,2.07
2022-09-30T12:43:06.584Z,1.93
2022-09-30T12:47:23.351Z,1.37
2022-09-30T12:51:31.664Z,1.27
2022-09-30T12:55:42.820Z,1.63
2022-09-30T12:59:52.877Z,1.30
2022-09-30T13:04:19.490Z,1.33
2022-09-30T13:08:48.528Z,1.40
2022-09-30T13:13:18.257Z,1.70
2022-09-30T13:17:28.587Z,1.43
2022-09-30T13:21:32.378Z,1.50
2022-09-30T13:25:55.410Z,1.57
2022-09-30T13:30:01.774Z,1.47
2022-09-30T13:34:12.203Z,1.57
2022-09-30T13:38:20.444Z,2.03
2022-09-30T13:42:29.653Z,1.70
2022-09-30T13:46:40.060Z,1.53
2022-09-30T13:50:48.551Z,1.50
2022-09-30T13:54:55.138Z,1.47
2022-09-30T13:59:21.698Z,1.73
2022-09-30T14:03:44.884Z,1.27
2022-09-30T14:08:08.295Z,1.80
2022-09-30T14:12:26.577Z,1.70
2022-09-30T14:17:12.458Z,1.73
2022-09-30T14:21:34.261Z,1.60
2022-09-30T14:25:51.279Z,1.60
2022-09-30T14:30:06.667Z,2.27
2022-09-30T14:34:12.848Z,2.13
2022-09-30T14:38:22.304Z,2.27
2022-09-30T14:42:35.033Z,2.50
2022-09-30T14:46:42.014Z,1.90
2022-09-30T14:50:49.337Z,2.40
2022-09-30T14:54:55.190Z,2.40
2022-09-30T14:58:59.463Z,2.10
2022-09-30T15:03:02.904Z,2.50
2022-09-30T15:07:11.052Z,2.13
2022-09-30T15:11:26.010Z,1.90
2022-09-30T15:15:36.587Z,3.23
2022-09-30T15:19:45.418Z,2.93
2022-09-30T15:23:52.389Z,2.87
2022-09-30T15:27:57.382Z,2.37
2022-09-30T15:32:04.942Z,2.57
2022-09-30T15:36:15.985Z,4.00
2022-09-30T15:40:51.067Z,3.63
2022-09-30T15:44:56.893Z,7.90
2022-09-30T15:49:02.874Z,3.93
2022-09-30T15:53:15.587Z,3.20
2022-09-30T15:57:44.539Z,4.37
2022-09-30T16:01:51.055Z,2.83
2022-09-30T16:06:01.249Z,4.80
2022-09-30T16:10:07.056Z,6.40
2022-09-30T16:14:18.765Z,4.63
2022-09-30T16:18:28.222Z,3.83
2022-09-30T16:22:51.684Z,3.27
2022-09-30T16:26:56.759Z,3.90
2022-09-30T16:30:59.966Z,3.80
2022-09-30T16:35:05.333Z,4.20
2022-09-30T16:39:10.128Z,3.70
2022-09-30T16:43:13.498Z,3.97
2022-09-30T16:47:18.085Z,4.03
2022-09-30T16:51:22.715Z,4.60
2022-09-30T16:55:26.781Z,4.30
2022-09-30T16:59:32.707Z,4.53
2022-09-30T17:03:35.948Z,4.17
2022-09-30T17:07:41.421Z,5.57
2022-09-30T17:11:44.677Z,4.77
2022-09-30T17:15:52.753Z,4.43
2022-09-30T17:19:56.615Z,5.70
2022-09-30T17:24:01.500Z,4.83
2022-09-30T17:28:04.987Z,3.97
2022-09-30T17:32:08.935Z,3.97
2022-09-30T17:36:15.091Z,4.60
2022-09-30T17:40:38.095Z,4.63
2022-09-30T17:44:50.960Z,4.70
2022-09-30T17:48:58.579Z,5.10
2022-09-30T17:53:06.008Z,6.37
2022-09-30T17:57:12.140Z,5.90
2022-09-30T18:01:16.961Z,5.13
2022-09-30T18:05:20.553Z,6.00
2022-09-30T18:09:24.824Z,5.80
2022-09-30T18:13:30.824Z,6.40
2022-09-30T18:17:34.400Z,7.37
2022-09-30T18:21:40.346Z,7.10
2022-09-30T18:25:44.284Z,8.03
2022-09-30T18:29:49.922Z,7.53
2022-09-30T18:33:58.627Z,6.77
2022-09-30T18:38:03.677Z,7.90
2022-09-30T18:42:07.107Z,7.37
2022-09-30T18:46:13.936Z,8.37
2022-09-30T18:50:17.986Z,8.67
2022-09-30T18:54:22.083Z,8.17
2022-09-30T18:58:26.411Z,9.47
2022-09-30T19:02:35.703Z,9.17
2022-09-30T19:06:45.732Z,8.57
2022-09-30T19:10:51.496Z,9.87
2022-09-30T19:14:57.432Z,27.57
2022-09-30T19:19:08.275Z,50.70
2022-09-30T19:23:11.954Z,17.40
2022-09-30T19:27:22.054Z,16.87
2022-09-30T19:31:28.177Z,12.13
2022-09-30T19:35:40.972Z,11.17
2022-09-30T19:39:48.347Z,9.20
2022-09-30T19:43:53.430Z,8.33
2022-09-30T19:47:58.879Z,6.97
2022-09-30T19:52:15.015Z,7.67
2022-09-30T19:56:24.099Z,7.10
2022-09-30T20:00:33.085Z,9.90
2022-09-30T20:04:38.096Z,7.57
2022-09-30T20:08:45.720Z,7.87
2022-09-30T20:12:56.646Z,8.47
2022-09-30T20:17:00.179Z,8.37
2022-09-30T20:21:08.611Z,7.23
2022-09-30T20:25:14.073Z,7.37
2022-09-30T20:29:21.036Z,7.10
2022-09-30T20:33:27.101Z,16.00
2022-09-30T20:37:30.930Z,10.33
2022-09-30T20:41:38.069Z,9.03
2022-09-30T20:45:42.649Z,8.20
2022-09-30T20:49:46.390Z,8.53
2022-09-30T20:53:52.381Z,8.07
2022-09-30T20:57:57.076Z,8.30
2022-09-30T21:02:00.818Z,7.90
2022-09-30T21:06:04.841Z,7.13
2022-09-30T21:10:08.718Z,7.97
2022-09-30T21:14:13.415Z,7.63
2022-09-30T21:18:17.577Z,8.40
2022-09-30T21:22:20.945Z,7.37
2022-09-30T21:26:25.816Z,6.87
2022-09-30T21:30:30.944Z,8.43
2022-09-30T21:34:35.938Z,7.70
2022-09-30T21:38:39.290Z,7.50
2022-09-30T21:42:42.775Z,7.83
2022-09-30T21:46:50.294Z,7.40
2022-09-30T21:50:53.762Z,8.27
2022-09-30T21:54:57.353Z,8.23
2022-09-30T21:59:00.998Z,7.80
2022-09-30T22:03:05.965Z,7.60
2022-09-30T22:07:09.403Z,8.37
2022-09-30T22:11:15.912Z,8.80
2022-09-30T22:15:19.323Z,8.00
2022-09-30T22:19:24.303Z,8.73
2022-09-30T22:23:27.600Z,8.50
2022-09-30T22:27:32.917Z,8.20
2022-09-30T22:31:36.531Z,9.07
2022-09-30T22:35:59.718Z,10.10
2022-09-30T22:40:03.391Z,9.13
2022-09-30T22:44:07.693Z,9.40
2022-09-30T22:48:11.201Z,8.83
2022-09-30T22:52:16.254Z,10.00
2022-09-30T22:56:21.743Z,9.37
2022-09-30T23:00:25.701Z,9.17
2022-09-30T23:04:29.311Z,9.63
2022-09-30T23:08:41.530Z,10.50
2022-09-30T23:12:44.928Z,9.80
2022-09-30T23:16:48.904Z,9.90
2022-09-30T23:20:56.554Z,10.50
2022-09-30T23:25:02.621Z,9.00
2022-09-30T23:29:07.795Z,10.00
2022-09-30T23:33:12.089Z,10.63
2022-09-30T23:37:16.135Z,9.70
2022-09-30T23:41:20.959Z,10.43
2022-09-30T23:45:24.525Z,10.87
2022-09-30T23:49:28.096Z,10.63
2022-09-30T23:53:32.275Z,11.70
2022-09-30T23:57:37.141Z,11.10
